Time;durP1;ratioP1;P1;durP2;ratioP2;P2;SDS_P1;SDS_P2;PMS_P1;PMS_P2;Temp;Humidity;BMP_temperature;BMP_pressure;BME280_temperature;BME280_humidity;BME280_pressure;Samples;Min_cycle;Max_cycle;Signal;HPM_P1;HPM_P2
2021/11/12 00:13:05;;;;;;;0.43;0.20;;;8.80;99.90;;;;;;5109085;28;20048;-86
2021/11/12 00:15:41;;;;;;;0.22;0.10;;;8.80;99.90;;;;;;5090876;28;20037;-86
2021/11/12 00:18:09;;;;;;;0.10;0.10;;;8.80;99.90;;;;;;5091914;28;20131;-86
2021/11/12 00:20:35;;;;;;;0.10;0.10;;;8.80;99.90;;;;;;5108267;28;20554;-86
2021/11/12 00:23:02;;;;;;;0.00;0.00;;;8.80;99.90;;;;;;5091802;28;20094;-86
2021/11/12 00:25:29;;;;;;;0.00;0.00;;;8.70;99.90;;;;;;5125608;28;20048;-86
2021/11/12 00:27:55;;;;;;;0.40;0.22;;;8.70;99.90;;;;;;5108615;28;20043;-86
2021/11/12 00:30:31;;;;;;;0.20;0.20;;;8.70;99.90;;;;;;5091799;28;20473;-86
2021/11/12 00:36:02;;;;;;;0.10;0.10;;;8.70;99.90;;;;;;5094080;28;20072;-86
2021/11/12 00:38:26;;;;;;;0.35;0.22;;;8.70;99.90;;;;;;5119233;28;20044;-86
2021/11/12 00:41:01;;;;;;;0.00;0.00;;;8.70;99.90;;;;;;5072303;28;20811;-86
2021/11/12 00:46:15;;;;;;;0.00;0.00;;;8.70;99.90;;;;;;5076104;28;20075;-85
2021/11/12 00:48:53;;;;;;;0.10;0.10;;;8.70;99.90;;;;;;5077586;28;20047;-86
2021/11/12 00:53:52;;;;;;;0.00;0.00;;;8.70;99.90;;;;;;5091058;28;20049;-86
2021/11/12 00:56:22;;;;;;;0.00;0.00;;;8.70;99.90;;;;;;5090628;28;20044;-86
2021/11/12 00:58:50;;;;;;;0.10;0.10;;;8.70;99.90;;;;;;5090913;28;20052;-86
2021/11/12 01:01:18;;;;;;;0.10;0.10;;;8.70;99.90;;;;;;5091575;28;20071;-86
2021/11/12 01:03:50;;;;;;;0.10;0.10;;;8.90;99.90;;;;;;5074622;28;20675;-86
2021/11/12 01:06:17;;;;;;;0.13;0.13;;;8.70;99.90;;;;;;5074780;28;20040;-86
2021/11/12 01:08:44;;;;;;;0.10;0.10;;;8.70;99.90;;;;;;5091065;28;20066;-86
2021/11/12 01:11:12;;;;;;;0.20;0.20;;;8.70;99.90;;;;;;5090585;28;20036;-86
2021/11/12 01:13:41;;;;;;;0.00;0.00;;;8.70;99.90;;;;;;5090513;28;20036;-86
2021/11/12 01:16:08;;;;;;;0.10;0.10;;;8.70;99.90;;;;;;5091021;28;20093;-86
2021/11/12 01:18:36;;;;;;;0.08;0.08;;;8.60;99.90;;;;;;5091348;28;20040;-86
2021/11/12 01:21:06;;;;;;;0.08;0.08;;;8.60;99.90;;;;;;5091209;28;20787;-86
2021/11/12 01:23:33;;;;;;;0.10;0.10;;;8.60;99.90;;;;;;5091205;28;20127;-85
2021/11/12 01:26:01;;;;;;;0.00;0.00;;;8.60;99.90;;;;;;5074372;28;20078;-85
2021/11/12 01:28:28;;;;;;;0.10;0.10;;;8.60;99.90;;;;;;5089783;28;20075;-85
2021/11/12 01:30:55;;;;;;;0.00;0.00;;;8.60;99.90;;;;;;5085932;28;20039;-84
2021/11/12 01:33:22;;;;;;;0.00;0.00;;;8.60;99.90;;;;;;5090566;28;20052;-85
2021/11/12 01:35:49;;;;;;;0.00;0.00;;;8.60;99.90;;;;;;5079654;28;20044;-85
2021/11/12 01:38:16;;;;;;;0.10;0.10;;;8.60;99.90;;;;;;5091062;28;20036;-85
2021/11/12 01:40:44;;;;;;;0.20;0.20;;;8.60;99.90;;;;;;5107219;28;20036;-86
2021/11/12 01:43:17;;;;;;;0.00;0.00;;;8.60;99.90;;;;;;5089804;28;20043;-86
2021/11/12 01:46:05;;;;;;;0.00;0.00;;;8.60;99.90;;;;;;5124853;28;20093;-86
2021/11/12 01:51:25;;;;;;;0.00;0.00;;;8.60;99.90;;;;;;5108317;28;20495;-85
2021/11/12 01:59:16;;;;;;;0.10;0.10;;;8.60;99.90;;;;;;5121257;28;20416;-85
2021/11/12 02:01:49;;;;;;;0.08;0.08;;;8.60;99.90;;;;;;5092020;28;20131;-85
2021/11/12 02:04:21;;;;;;;0.10;0.10;;;8.60;99.90;;;;;;5128332;28;20040;-85
2021/11/12 02:06:48;;;;;;;0.10;0.10;;;8.60;99.90;;;;;;5126746;28;20040;-86
2021/11/12 02:09:20;;;;;;;0.40;0.20;;;8.60;99.90;;;;;;5128493;28;20033;-86
2021/11/12 02:12:03;;;;;;;0.57;0.17;;;8.60;99.90;;;;;;5127650;28;20485;-86
2021/11/12 02:14:31;;;;;;;0.10;0.10;;;8.60;99.90;;;;;;5128104;28;20036;-86
2021/11/12 02:17:07;;;;;;;0.00;0.00;;;8.60;99.90;;;;;;5110827;28;20028;-86
2021/11/12 02:19:35;;;;;;;0.10;0.10;;;8.60;99.90;;;;;;5127986;28;20040;-86
2021/11/12 02:22:15;;;;;;;0.30;0.30;;;8.60;99.90;;;;;;5127482;28;20040;-86
2021/11/12 02:24:49;;;;;;;0.10;0.10;;;8.60;99.90;;;;;;5127117;28;20044;-86
2021/11/12 02:27:18;;;;;;;0.10;0.10;;;8.50;99.90;;;;;;5109222;28;20093;-86
2021/11/12 02:29:54;;;;;;;0.10;0.10;;;8.50;99.90;;;;;;5127195;28;20094;-86
2021/11/12 02:32:28;;;;;;;0.10;0.10;;;8.60;99.90;;;;;;5127194;28;20044;-86
2021/11/12 02:34:59;;;;;;;0.10;0.10;;;8.50;99.90;;;;;;5127484;28;20032;-86
2021/11/12 02:37:29;;;;;;;0.10;0.10;;;8.60;99.90;;;;;;5127608;28;20052;-86
2021/11/12 02:39:56;;;;;;;0.00;0.00;;;8.50;99.90;;;;;;5127845;28;20048;-86
2021/11/12 02:42:24;;;;;;;0.00;0.00;;;8.50;99.90;;;;;;5093662;28;20041;-86
2021/11/12 02:44:51;;;;;;;0.10;0.10;;;8.60;99.90;;;;;;5109599;28;20562;-87
2021/11/12 02:47:19;;;;;;;0.10;0.10;;;8.50;99.90;;;;;;5093396;28;20044;-86
2021/11/12 02:49:46;;;;;;;0.10;0.10;;;8.60;99.90;;;;;;5093352;28;20045;-86
2021/11/12 02:52:19;;;;;;;0.10;0.10;;;8.50;99.90;;;;;;5093494;28;20496;-86
2021/11/12 02:54:47;;;;;;;0.10;0.10;;;8.50;99.90;;;;;;5127485;28;20040;-86
2021/11/12 02:57:14;;;;;;;0.10;0.10;;;8.50;99.90;;;;;;5127623;28;20072;-86
2021/11/12 02:59:41;;;;;;;0.10;0.10;;;8.50;99.90;;;;;;5110333;28;20828;-86
2021/11/12 03:02:08;;;;;;;0.05;0.05;;;8.60;99.90;;;;;;5109486;28;20040;-86
2021/11/12 03:04:35;;;;;;;0.10;0.10;;;8.50;99.90;;;;;;5127960;28;20123;-86
2021/11/12 03:07:02;;;;;;;0.00;0.00;;;8.50;99.90;;;;;;5093851;28;20044;-86
2021/11/12 03:09:31;;;;;;;0.00;0.00;;;8.60;99.90;;;;;;5110386;28;20044;-85
2021/11/12 03:12:00;;;;;;;0.10;0.10;;;8.60;99.90;;;;;;5126354;28;20562;-85
2021/11/12 03:14:28;;;;;;;0.00;0.00;;;8.60;99.90;;;;;;5126113;28;20043;-85
2021/11/12 03:16:56;;;;;;;0.00;0.00;;;8.60;99.90;;;;;;5109535;28;20040;-85
2021/11/12 03:19:25;;;;;;;0.10;0.10;;;8.60;99.90;;;;;;5125805;28;20044;-85
2021/11/12 03:21:59;;;;;;;0.00;0.00;;;8.60;99.90;;;;;;5108984;28;20059;-85
2021/11/12 03:24:30;;;;;;;0.00;0.00;;;8.60;99.90;;;;;;5126281;28;20507;-86
2021/11/12 03:30:24;;;;;;;0.25;0.20;;;8.60;99.90;;;;;;5125478;28;20050;-86
2021/11/12 04:00:10;;;;;;;0.10;0.10;;;8.50;99.90;;;;;;5142904;28;20108;-85
2021/11/12 04:21:52;;;;;;;0.00;0.00;;;8.50;99.90;;;;;;5124074;28;20041;-86
2021/11/12 05:11:06;;;;;;;0.20;0.20;;;8.30;99.90;;;;;;5122935;28;20400;-85
2021/11/12 05:44:17;;;;;;;0.10;0.10;;;8.20;99.90;;;;;;5091600;28;20099;-85
2021/11/12 05:47:03;;;;;;;0.08;0.08;;;8.20;99.90;;;;;;5065665;28;20044;-85
2021/11/12 05:55:09;;;;;;;0.10;0.10;;;8.20;99.90;;;;;;5126487;28;20044;-85
2021/11/12 05:57:38;;;;;;;;;;;8.30;99.90;;;;;;5110576;28;20090;-85
2021/11/12 06:00:14;;;;;;;0.10;0.10;;;8.20;99.90;;;;;;5110086;28;19974;-86
2021/11/12 06:02:41;;;;;;;0.00;0.00;;;8.20;99.90;;;;;;5128052;28;20489;-86
2021/11/12 06:05:09;;;;;;;0.05;0.05;;;8.20;99.90;;;;;;5112017;28;20132;-85
2021/11/12 06:07:36;;;;;;;0.20;0.20;;;8.20;99.90;;;;;;5111776;28;20481;-85
2021/11/12 06:10:04;;;;;;;0.00;0.00;;;8.20;99.90;;;;;;5111417;28;20041;-86
2021/11/12 06:12:32;;;;;;;0.00;0.00;;;8.20;99.90;;;;;;5128959;28;20044;-86
2021/11/12 06:14:58;;;;;;;0.20;0.15;;;8.30;99.90;;;;;;5127236;28;20044;-87
2021/11/12 06:17:26;;;;;;;0.10;0.10;;;8.30;99.90;;;;;;5127771;28;20041;-86
2021/11/12 06:19:53;;;;;;;0.10;0.10;;;8.20;99.90;;;;;;5111086;28;20032;-86
2021/11/12 06:22:19;;;;;;;0.05;0.05;;;8.20;99.90;;;;;;5094880;28;20914;-86
2021/11/12 06:24:46;;;;;;;0.00;0.00;;;8.50;99.90;;;;;;5128207;28;20090;-86
2021/11/12 06:27:13;;;;;;;0.00;0.00;;;8.20;99.90;;;;;;5093545;28;20443;-85
2021/11/12 06:29:40;;;;;;;0.10;0.10;;;8.20;99.90;;;;;;5094161;28;20045;-86
2021/11/12 06:32:07;;;;;;;0.00;0.00;;;8.20;99.90;;;;;;5109968;28;20047;-84
2021/11/12 06:34:34;;;;;;;0.10;0.10;;;8.20;99.90;;;;;;5127745;28;20492;-85
2021/11/12 06:37:01;;;;;;;0.10;0.10;;;8.20;99.90;;;;;;5128272;28;20097;-85
2021/11/12 06:39:28;;;;;;;0.10;0.10;;;8.20;99.90;;;;;;5128579;28;20035;-85
2021/11/12 06:41:58;;;;;;;0.05;0.05;;;8.20;99.90;;;;;;5092312;28;20036;-85
2021/11/12 06:49:53;;;;;;;0.00;0.00;;;8.20;99.90;;;;;;5141664;28;20489;-86
2021/11/12 06:52:23;;;;;;;0.00;0.00;;;8.20;99.90;;;;;;5125317;28;20094;-86
2021/11/12 06:54:54;;;;;;;0.10;0.10;;;8.20;99.90;;;;;;5092777;28;20044;-86
2021/11/12 06:57:22;;;;;;;0.10;0.10;;;8.20;99.90;;;;;;5108536;28;20041;-86
2021/11/12 06:59:49;;;;;;;0.10;0.10;;;8.30;99.90;;;;;;5108438;28;20057;-85
2021/11/12 07:02:18;;;;;;;0.15;0.15;;;8.20;99.90;;;;;;5125106;28;20483;-85
2021/11/12 07:04:45;;;;;;;0.05;0.05;;;8.20;99.90;;;;;;5092265;28;20408;-85
2021/11/12 07:07:13;;;;;;;0.10;0.10;;;8.20;99.90;;;;;;5080146;28;20040;-86
2021/11/12 07:09:39;;;;;;;0.10;0.10;;;8.20;99.90;;;;;;5079428;28;20107;-86
2021/11/12 07:12:07;;;;;;;0.10;0.10;;;8.20;99.90;;;;;;5088554;28;20041;-86
2021/11/12 07:14:35;;;;;;;0.15;0.15;;;8.20;99.90;;;;;;5071766;28;20044;-84
2021/11/12 07:17:02;;;;;;;0.10;0.10;;;8.20;99.90;;;;;;5091222;28;20040;-85
2021/11/12 07:19:29;;;;;;;0.00;0.00;;;8.20;99.90;;;;;;5090145;28;20040;-85
2021/11/12 07:21:57;;;;;;;0.10;0.10;;;8.30;99.90;;;;;;5091803;28;20379;-86
2021/11/12 07:24:25;;;;;;;0.00;0.00;;;8.30;99.90;;;;;;5088540;28;20051;-86
2021/11/12 07:26:52;;;;;;;1.40;0.20;;;8.30;99.90;;;;;;5077677;28;20029;-85
2021/11/12 07:29:20;;;;;;;0.10;0.10;;;8.30;99.90;;;;;;5103916;28;20063;-84
2021/11/12 07:31:47;;;;;;;0.10;0.10;;;8.30;99.90;;;;;;5101387;28;20447;-85
2021/11/12 07:34:14;;;;;;;0.10;0.10;;;8.30;99.90;;;;;;5075166;28;20043;-85
2021/11/12 07:36:52;;;;;;;0.10;0.10;;;8.30;99.90;;;;;;5058442;28;20039;-86
2021/11/12 07:39:37;;;;;;;0.17;0.17;;;8.30;99.90;;;;;;5072022;28;20044;-85
2021/11/12 07:47:14;;;;;;;0.13;0.13;;;8.40;99.90;;;;;;5107681;28;20045;-86
2021/11/12 07:49:43;;;;;;;0.20;0.20;;;8.40;99.90;;;;;;5124734;28;20088;-86
2021/11/12 07:52:13;;;;;;;0.10;0.10;;;8.40;99.90;;;;;;5082696;28;20049;-85
2021/11/12 07:54:41;;;;;;;0.10;0.10;;;8.40;99.90;;;;;;5106654;28;20075;-85
2021/11/12 07:57:08;;;;;;;0.10;0.10;;;8.40;99.90;;;;;;5107666;28;20044;-85
2021/11/12 07:59:36;;;;;;;0.10;0.10;;;9.00;99.90;;;;;;5106485;28;20416;-85
2021/11/12 08:02:04;;;;;;;0.10;0.10;;;8.70;99.90;;;;;;5107327;28;20083;-86
2021/11/12 08:04:31;;;;;;;0.08;0.08;;;8.40;99.90;;;;;;5107387;28;20094;-78
2021/11/12 08:07:00;;;;;;;0.30;0.30;;;8.50;99.90;;;;;;5107532;28;20427;-85
2021/11/12 08:09:34;;;;;;;0.10;0.10;;;8.50;99.90;;;;;;5082840;28;20056;-85
2021/11/12 08:12:06;;;;;;;0.10;0.10;;;8.40;99.90;;;;;;5119042;28;20515;-86
2021/11/12 08:19:43;;;;;;;0.15;0.15;;;8.50;99.90;;;;;;5087266;28;20055;-86
2021/11/12 08:45:40;;;;;;;0.10;0.10;;;8.70;99.90;;;;;;5070435;28;20052;-85
2021/11/12 08:48:15;;;;;;;0.03;0.03;;;8.60;99.90;;;;;;5087886;28;20047;-86
2021/11/12 08:50:42;;;;;;;0.10;0.10;;;8.70;99.90;;;;;;5069975;28;20037;-86
2021/11/12 08:53:12;;;;;;;0.00;0.00;;;8.60;99.90;;;;;;5057615;28;20523;-86
2021/11/12 08:55:40;;;;;;;0.10;0.10;;;8.70;99.90;;;;;;5087714;28;20083;-87
2021/11/12 08:58:11;;;;;;;0.10;0.10;;;8.70;99.90;;;;;;5086276;28;20124;-86
2021/11/12 09:00:40;;;;;;;0.10;0.10;;;8.70;99.90;;;;;;5102425;28;20052;-86
2021/11/12 09:03:08;;;;;;;0.00;0.00;;;8.70;99.90;;;;;;5086581;28;20045;-86
2021/11/12 09:05:36;;;;;;;0.10;0.10;;;8.80;99.90;;;;;;5069631;28;20045;-86
2021/11/12 09:08:04;;;;;;;0.10;0.10;;;8.20;99.90;;;;;;5069700;28;20056;-86
2021/11/12 09:10:32;;;;;;;0.08;0.08;;;8.80;99.90;;;;;;5102889;28;20070;-85
2021/11/12 09:13:23;;;;;;;0.13;0.13;;;8.80;99.90;;;;;;5068628;28;20048;-86
2021/11/12 09:15:51;;;;;;;0.20;0.20;;;8.90;99.90;;;;;;5072222;28;20120;-85
2021/11/12 09:18:21;;;;;;;0.30;0.20;;;8.80;99.90;;;;;;5105903;28;20047;-87
2021/11/12 09:20:50;;;;;;;0.10;0.10;;;8.80;99.90;;;;;;5122203;28;20037;-85
2021/11/12 09:23:17;;;;;;;0.20;0.20;;;8.90;99.90;;;;;;5106549;28;20040;-86
2021/11/12 09:25:44;;;;;;;0.10;0.10;;;8.90;99.90;;;;;;5089532;28;20130;-88
2021/11/12 09:28:15;;;;;;;0.47;0.25;;;8.90;99.90;;;;;;5106715;28;20047;-89
2021/11/12 09:30:42;;;;;;;0.10;0.10;;;8.90;99.90;;;;;;5089880;28;20086;-86
2021/11/12 09:33:10;;;;;;;0.00;0.00;;;9.00;99.90;;;;;;5105737;28;20514;-82
2021/11/12 09:35:37;;;;;;;1.25;0.40;;;9.00;99.90;;;;;;5122599;28;20041;-82
2021/11/12 09:38:04;;;;;;;0.00;0.00;;;9.00;99.90;;;;;;5123616;28;20036;-87
2021/11/12 09:40:31;;;;;;;1.45;0.30;;;9.10;99.90;;;;;;5106001;28;20040;-83
2021/11/12 09:42:58;;;;;;;0.10;0.10;;;9.10;99.90;;;;;;5122665;28;20044;-86
2021/11/12 09:45:25;;;;;;;0.20;0.20;;;9.20;99.90;;;;;;5106635;28;20071;-88
2021/11/12 09:47:52;;;;;;;0.03;0.03;;;9.30;99.90;;;;;;5106056;28;20044;-88
2021/11/12 09:50:24;;;;;;;0.10;0.10;;;9.30;99.90;;;;;;5106172;28;20048;-86
2021/11/12 09:52:52;;;;;;;0.00;0.00;;;9.30;99.90;;;;;;5122456;28;20080;-82
2021/11/12 09:55:20;;;;;;;0.10;0.10;;;9.30;99.90;;;;;;5089405;28;20083;-82
2021/11/12 09:57:47;;;;;;;0.20;0.20;;;9.30;99.90;;;;;;5122527;28;20072;-83
2021/11/12 10:00:18;;;;;;;0.20;0.20;;;9.40;99.90;;;;;;5105502;28;20079;-82
2021/11/12 10:02:46;;;;;;;0.00;0.00;;;9.40;99.90;;;;;;5113382;28;20737;-83
2021/11/12 10:05:35;;;;;;;0.88;0.32;;;9.40;99.90;;;;;;5103349;28;20064;-83
2021/11/12 10:08:17;;;;;;;0.05;0.05;;;9.40;99.90;;;;;;5081878;28;20440;-82
2021/11/12 10:10:58;;;;;;;0.10;0.10;;;9.40;99.90;;;;;;5054690;28;20045;-82
2021/11/12 10:13:29;;;;;;;0.10;0.10;;;9.40;99.90;;;;;;5115348;28;20121;-82
2021/11/12 10:16:13;;;;;;;0.10;0.10;;;9.50;99.90;;;;;;5088882;28;20044;-87
2021/11/12 10:18:59;;;;;;;0.00;0.00;;;9.50;99.90;;;;;;5089278;28;20105;-81
2021/11/12 10:21:32;;;;;;;0.15;0.10;;;9.50;99.90;;;;;;5089525;28;20036;-82
2021/11/12 10:24:09;;;;;;;0.10;0.10;;;9.60;99.90;;;;;;5076638;28;20051;-82
2021/11/12 10:26:37;;;;;;;0.38;0.15;;;9.60;99.90;;;;;;5093231;28;20040;-87
2021/11/12 10:29:08;;;;;;;0.00;0.00;;;9.50;99.90;;;;;;5092923;28;20500;-87
2021/11/12 10:31:41;;;;;;;0.10;0.10;;;9.60;99.90;;;;;;5093330;28;20049;-87
2021/11/12 10:34:17;;;;;;;0.03;0.03;;;9.50;99.90;;;;;;5092397;28;20054;-83
2021/11/12 10:36:54;;;;;;;0.10;0.10;;;9.60;99.90;;;;;;5092733;28;20032;-83
2021/11/12 10:39:29;;;;;;;0.10;0.10;;;9.60;99.90;;;;;;5092184;28;20037;-82
2021/11/12 10:41:58;;;;;;;0.10;0.10;;;9.70;99.90;;;;;;5091928;28;20037;-87
2021/11/12 10:44:26;;;;;;;0.00;0.00;;;9.70;99.90;;;;;;5108859;28;20041;-83
2021/11/12 10:46:53;;;;;;;0.22;0.22;;;9.70;99.90;;;;;;5109022;28;20044;-86
2021/11/12 10:49:41;;;;;;;0.00;0.00;;;9.70;99.90;;;;;;5126273;28;20124;-83
2021/11/12 10:52:16;;;;;;;0.00;0.00;;;9.70;99.90;;;;;;5092405;28;20037;-87
2021/11/12 10:54:59;;;;;;;0.00;0.00;;;9.70;99.90;;;;;;5108740;28;20040;-86
2021/11/12 10:57:31;;;;;;;0.08;0.08;;;9.70;99.90;;;;;;5092540;28;20040;-83
2021/11/12 11:00:23;;;;;;;0.00;0.00;;;9.80;99.90;;;;;;5091577;28;20059;-83
2021/11/12 11:02:53;;;;;;;0.75;0.22;;;9.80;99.90;;;;;;5125078;28;20072;-87
2021/11/12 11:05:25;;;;;;;0.52;0.30;;;9.80;99.90;;;;;;5091935;28;20048;-88
2021/11/12 11:08:04;;;;;;;0.00;0.00;;;9.80;99.90;;;;;;5091721;28;20045;-83
2021/11/12 11:10:32;;;;;;;0.35;0.30;;;9.80;99.90;;;;;;5108659;28;20037;-87
2021/11/12 11:13:10;;;;;;;0.00;0.00;;;9.80;99.90;;;;;;5091586;28;20049;-87
2021/11/12 11:15:42;;;;;;;0.00;0.00;;;9.80;99.90;;;;;;5092092;28;20075;-87
2021/11/12 11:18:25;;;;;;;0.00;0.00;;;9.80;99.90;;;;;;5108374;28;20037;-85
2021/11/12 11:20:56;;;;;;;0.03;0.03;;;9.80;99.90;;;;;;5091286;28;20063;-83
2021/11/12 11:23:24;;;;;;;0.00;0.00;;;9.80;99.90;;;;;;5108955;28;20044;-83
2021/11/12 11:25:55;;;;;;;0.00;0.00;;;9.80;99.90;;;;;;5091202;28;20036;-83
2021/11/12 11:28:22;;;;;;;0.10;0.10;;;9.80;99.90;;;;;;5091381;28;20132;-86
2021/11/12 11:30:49;;;;;;;0.65;0.13;;;9.80;99.90;;;;;;5108164;28;20123;-82
2021/11/12 11:33:17;;;;;;;0.10;0.10;;;9.80;99.90;;;;;;5125196;28;20402;-82
2021/11/12 11:35:46;;;;;;;0.00;0.00;;;9.80;99.90;;;;;;5107112;28;20040;-82
2021/11/12 11:38:17;;;;;;;0.08;0.08;;;9.80;99.90;;;;;;5091483;28;20033;-86
2021/11/12 11:40:46;;;;;;;0.00;0.00;;;9.80;99.90;;;;;;5091487;28;20043;-83
2021/11/12 11:43:14;;;;;;;0.10;0.10;;;9.80;99.90;;;;;;5124624;28;20046;-87
2021/11/12 11:45:45;;;;;;;0.00;0.00;;;9.80;99.90;;;;;;5091364;28;20087;-81
2021/11/12 11:48:13;;;;;;;0.00;0.00;;;9.80;99.90;;;;;;5090516;28;20041;-85
2021/11/12 11:50:56;;;;;;;0.03;0.03;;;9.80;99.90;;;;;;5095113;28;20044;-81
2021/11/12 11:53:31;;;;;;;0.30;0.22;;;9.80;99.90;;;;;;5103717;28;20088;-86
2021/11/12 11:56:11;;;;;;;0.10;0.10;;;9.70;99.90;;;;;;5091028;28;20037;-87
2021/11/12 11:58:53;;;;;;;0.20;0.20;;;9.80;99.90;;;;;;5124157;28;20072;-86
2021/11/12 12:01:19;;;;;;;0.00;0.00;;;9.80;99.90;;;;;;5090575;28;20923;-87
2021/11/12 12:03:47;;;;;;;0.08;0.08;;;9.80;99.90;;;;;;5124935;28;20044;-86
2021/11/12 12:06:18;;;;;;;0.00;0.00;;;9.70;99.90;;;;;;5107076;28;20048;-86
2021/11/12 12:09:06;;;;;;;0.10;0.10;;;9.60;99.90;;;;;;5124050;28;20036;-82
2021/11/12 12:11:51;;;;;;;0.08;0.08;;;9.70;99.90;;;;;;5091021;28;20130;-87
2021/11/12 12:14:24;;;;;;;0.00;0.00;;;9.70;99.90;;;;;;5117847;28;20033;-82
2021/11/12 12:17:22;;;;;;;0.00;0.00;;;9.70;99.90;;;;;;5092349;28;20171;-83
2021/11/12 12:20:37;;;;;;;0.00;0.00;;;9.70;99.90;;;;;;5099364;28;20835;-86
2021/11/12 13:23:26;;;;;;;0.10;0.10;;;9.60;99.90;;;;;;5140347;28;20497;-82
2021/11/12 13:25:52;;;;;;;0.00;0.00;;;9.60;99.90;;;;;;5139657;28;20106;-82
2021/11/12 13:28:29;;;;;;;0.00;0.00;;;9.50;99.90;;;;;;5122615;28;20048;-86
2021/11/12 13:31:09;;;;;;;0.28;0.20;;;9.50;99.90;;;;;;5123058;28;20484;-82
2021/11/12 13:33:41;;;;;;;0.00;0.00;;;9.50;99.90;;;;;;5122842;28;20460;-86
2021/11/12 13:36:15;;;;;;;0.20;0.20;;;9.50;99.90;;;;;;5103141;28;20048;-80
2021/11/12 13:38:45;;;;;;;0.10;0.10;;;9.50;99.90;;;;;;5102865;28;20044;-80
2021/11/12 13:41:15;;;;;;;0.00;0.00;;;9.40;99.90;;;;;;5102505;28;20567;-82
2021/11/12 13:43:44;;;;;;;0.10;0.10;;;9.40;99.90;;;;;;5086181;28;20041;-82
2021/11/12 13:46:14;;;;;;;0.10;0.10;;;9.50;99.90;;;;;;5118838;28;20489;-87
2021/11/12 13:48:50;;;;;;;0.00;0.00;;;9.40;99.90;;;;;;5086443;28;20048;-86
2021/11/12 13:51:29;;;;;;;0.10;0.10;;;9.40;99.90;;;;;;5111897;28;20413;-82
2021/11/12 13:53:58;;;;;;;0.17;0.05;;;9.30;99.90;;;;;;5116566;28;20044;-87
2021/11/12 13:56:25;;;;;;;0.10;0.10;;;9.30;99.90;;;;;;5123046;28;20040;-82
2021/11/12 13:59:09;;;;;;;0.10;0.10;;;9.30;99.90;;;;;;5108912;28;20117;-87
2021/11/12 14:01:37;;;;;;;0.08;0.08;;;9.30;99.90;;;;;;5126558;28;20049;-82
2021/11/12 14:04:24;;;;;;;0.10;0.10;;;9.30;99.90;;;;;;5092906;28;20047;-87
2021/11/12 14:06:53;;;;;;;0.05;0.05;;;9.30;99.90;;;;;;5126673;28;20569;-82
2021/11/12 14:09:22;;;;;;;0.13;0.13;;;9.20;99.90;;;;;;5126234;28;20411;-87
2021/11/12 14:12:22;;;;;;;0.10;0.10;;;9.20;99.90;;;;;;5109421;28;20512;-87
2021/11/12 14:15:04;;;;;;;0.43;0.25;;;9.20;99.90;;;;;;5064878;28;20063;-82
2021/11/12 14:17:32;;;;;;;0.10;0.10;;;9.20;99.90;;;;;;5143237;28;20085;-87
2021/11/12 14:20:34;;;;;;;0.00;0.00;;;9.10;99.90;;;;;;5109105;28;20046;-87
2021/11/12 14:23:16;;;;;;;0.10;0.10;;;9.10;99.90;;;;;;5108782;28;20389;-87
2021/11/12 14:28:44;;;;;;;0.00;0.00;;;9.00;99.90;;;;;;5143632;28;20044;-83
2021/11/12 14:31:30;;;;;;;0.00;0.00;;;9.00;99.90;;;;;;5108805;28;20119;-82
2021/11/12 14:34:12;;;;;;;0.00;0.00;;;9.00;99.90;;;;;;5106243;28;20048;-87
2021/11/12 14:36:48;;;;;;;0.03;0.03;;;8.90;99.90;;;;;;5107707;28;20112;-86
2021/11/12 14:39:48;;;;;;;0.03;0.03;;;8.80;99.90;;;;;;5125737;28;20044;-87
2021/11/12 14:48:13;;;;;;;0.00;0.00;;;8.70;99.90;;;;;;5143335;28;20496;-83
2021/11/12 14:50:50;;;;;;;0.10;0.10;;;8.60;99.90;;;;;;5122417;28;20097;-83
2021/11/12 14:53:25;;;;;;;0.08;0.08;;;8.60;99.90;;;;;;5142540;28;20505;-83
2021/11/12 14:56:06;;;;;;;0.30;0.30;;;8.60;99.90;;;;;;5125798;28;20451;-86
2021/11/12 14:58:36;;;;;;;0.03;0.03;;;8.50;99.90;;;;;;5125120;28;20489;-82
2021/11/12 15:01:14;;;;;;;0.10;0.10;;;8.40;99.90;;;;;;5125011;28;20048;-82
2021/11/12 15:03:45;;;;;;;0.10;0.10;;;8.40;99.90;;;;;;5125993;28;20075;-86
2021/11/12 15:06:14;;;;;;;0.10;0.10;;;8.40;99.90;;;;;;5124999;28;20041;-86
2021/11/12 15:11:30;;;;;;;0.00;0.00;;;8.40;99.90;;;;;;5077286;28;20613;-82
2021/11/12 15:14:35;;;;;;;0.10;0.10;;;8.30;99.90;;;;;;5091816;28;20043;-86
2021/11/12 15:16:51;;;;;;;0.10;0.10;;;8.30;99.90;;;;;;5119286;28;20043;-86
2021/11/12 15:19:20;;;;;;;0.00;0.00;;;8.30;99.90;;;;;;5119662;28;20530;-87
2021/11/12 15:29:53;;;;;;;0.10;0.10;;;8.10;99.90;;;;;;5142127;28;20127;-86
2021/11/12 15:32:25;;;;;;;0.20;0.20;;;8.00;99.90;;;;;;5100462;28;20925;-83
2021/11/12 15:35:03;;;;;;;0.00;0.00;;;8.00;99.90;;;;;;5054497;28;20070;-83
2021/11/12 15:37:41;;;;;;;0.17;0.17;;;7.90;99.90;;;;;;5114503;28;20040;-82
2021/11/12 15:48:10;;;;;;;0.53;0.53;;;7.80;99.90;;;;;;5081330;28;20071;-82
2021/11/12 15:53:40;;;;;;;0.10;0.10;;;7.70;99.90;;;;;;5086913;28;20048;-82
2021/11/12 16:04:27;;;;;;;0.22;0.22;;;7.60;99.90;;;;;;5106055;28;20516;-86
2021/11/12 16:09:29;;;;;;;0.10;0.10;;;7.90;99.90;;;;;;5087117;28;20062;-85
2021/11/12 16:22:33;;;;;;;0.15;0.15;;;7.50;99.90;;;;;;5104312;28;20048;-85
2021/11/12 16:25:08;;;;;;;0.00;0.00;;;7.50;99.90;;;;;;5070950;28;20052;-82
2021/11/12 16:27:38;;;;;;;0.10;0.10;;;7.40;99.90;;;;;;5087958;28;20044;-86
2021/11/12 16:30:07;;;;;;;0.10;0.10;;;7.40;99.90;;;;;;5104005;28;20464;-81
2021/11/12 16:32:43;;;;;;;0.10;0.10;;;7.40;99.90;;;;;;5069853;28;20489;-81
2021/11/12 16:35:15;;;;;;;0.00;0.00;;;7.40;99.90;;;;;;5088390;28;20135;-85
2021/11/12 16:37:44;;;;;;;0.10;0.10;;;7.30;99.90;;;;;;5070555;28;20037;-81
2021/11/12 16:46:04;;;;;;;;;;;7.30;99.90;;;;;;5104831;28;20041;-81
2021/11/12 17:06:16;;;;;;;0.10;0.10;;;7.10;99.90;;;;;;5103985;28;20045;-81
2021/11/12 17:08:52;;;;;;;0.00;0.00;;;7.10;99.90;;;;;;5070932;28;20045;-81
2021/11/12 17:11:30;;;;;;;0.10;0.10;;;7.10;99.90;;;;;;5087991;28;20056;-81
2021/11/12 17:17:05;;;;;;;0.10;0.10;;;7.10;99.90;;;;;;5072576;28;20048;-85
2021/11/12 17:22:51;;;;;;;0.10;0.10;;;7.10;99.90;;;;;;5114249;28;20131;-81
2021/11/12 17:46:56;;;;;;;0.10;0.10;;;7.10;99.90;;;;;;5075724;28;20056;-85
2021/11/12 18:02:51;;;;;;;0.30;0.30;;;7.10;99.90;;;;;;5089463;28;20088;-82
2021/11/12 21:43:54;;;;;;;0.52;0.52;;;7.20;99.90;;;;;;5091924;28;20052;-84
2021/11/12 21:46:23;;;;;;;0.10;0.10;;;7.20;99.90;;;;;;5073635;28;20044;-81
2021/11/12 21:48:58;;;;;;;0.30;0.30;;;7.30;99.90;;;;;;5073276;28;20560;-83
2021/11/12 21:51:28;;;;;;;0.10;0.10;;;7.20;99.90;;;;;;5124726;28;20051;-82
2021/11/12 21:53:59;;;;;;;0.10;0.10;;;7.30;99.90;;;;;;5103390;28;20041;-81
2021/11/12 21:56:26;;;;;;;0.10;0.10;;;7.20;99.90;;;;;;5107076;28;20493;-87
2021/11/12 21:58:53;;;;;;;0.10;0.10;;;7.20;99.90;;;;;;5123712;28;20109;-82
2021/11/12 22:01:22;;;;;;;0.10;0.10;;;7.20;99.90;;;;;;5089042;28;20084;-82
2021/11/12 22:03:49;;;;;;;0.10;0.10;;;7.20;99.90;;;;;;5106186;28;20066;-83
2021/11/12 22:06:16;;;;;;;0.20;0.20;;;7.20;99.90;;;;;;5106195;28;20127;-87
2021/11/12 22:08:43;;;;;;;0.00;0.00;;;7.20;99.90;;;;;;5107050;28;20132;-82
2021/11/12 22:11:10;;;;;;;0.10;0.10;;;7.30;99.90;;;;;;5122902;28;20048;-87
2021/11/12 22:13:38;;;;;;;0.17;0.17;;;7.30;99.90;;;;;;5106433;28;20039;-82
2021/11/12 22:16:07;;;;;;;0.10;0.10;;;7.30;99.90;;;;;;5105551;28;20086;-82
2021/11/12 22:18:36;;;;;;;0.10;0.10;;;7.30;99.90;;;;;;5123616;28;20037;-82
2021/11/12 22:21:03;;;;;;;0.10;0.10;;;7.30;99.90;;;;;;5126839;28;20075;-86
2021/11/12 22:23:31;;;;;;;0.10;0.10;;;7.40;99.90;;;;;;5126678;28;20148;-87
2021/11/12 22:25:59;;;;;;;0.10;0.10;;;7.40;99.90;;;;;;5109643;28;20530;-82
2021/11/12 22:28:26;;;;;;;0.10;0.10;;;7.30;99.90;;;;;;5093119;28;20044;-87
2021/11/12 22:30:54;;;;;;;0.10;0.10;;;7.40;99.90;;;;;;5126855;28;20044;-82
2021/11/12 22:33:21;;;;;;;0.15;0.15;;;7.40;99.90;;;;;;5103330;28;20037;-87
2021/11/12 22:35:48;;;;;;;0.10;0.10;;;7.90;99.90;;;;;;5120793;28;20028;-82
2021/11/12 22:38:16;;;;;;;0.10;0.10;;;7.30;99.90;;;;;;5089720;28;20497;-82
2021/11/12 22:40:45;;;;;;;0.10;0.10;;;7.30;99.90;;;;;;5056131;28;20037;-86
2021/11/12 22:43:12;;;;;;;0.10;0.10;;;7.30;99.90;;;;;;5105337;28;20477;-86
2021/11/12 22:45:38;;;;;;;0.10;0.10;;;7.40;99.90;;;;;;5073073;28;20044;-87
2021/11/12 22:48:06;;;;;;;1.02;0.45;;;7.40;99.90;;;;;;5088901;28;20055;-85
2021/11/12 22:50:35;;;;;;;0.10;0.10;;;7.40;99.90;;;;;;5089223;28;20478;-87
2021/11/12 22:53:03;;;;;;;1.35;0.40;;;7.40;99.90;;;;;;5089051;28;20471;-86
2021/11/12 22:55:30;;;;;;;0.20;0.20;;;7.40;99.90;;;;;;5089416;28;20037;-86
2021/11/12 22:57:57;;;;;;;0.40;0.40;;;7.40;99.90;;;;;;5072626;28;20043;-82
2021/11/12 23:01:01;;;;;;;0.10;0.10;;;7.50;99.90;;;;;;5055384;28;20049;-87
2021/11/12 23:03:28;;;;;;;0.10;0.10;;;7.50;99.90;;;;;;5082257;28;20131;-87
2021/11/12 23:05:55;;;;;;;0.10;0.10;;;7.50;99.90;;;;;;5072572;28;20585;-87
2021/11/12 23:08:22;;;;;;;0.08;0.08;;;7.50;99.90;;;;;;5072285;28;20049;-87
2021/11/12 23:10:50;;;;;;;0.00;0.00;;;7.50;99.90;;;;;;5072527;28;20532;-86
2021/11/12 23:13:16;;;;;;;0.10;0.10;;;7.50;99.90;;;;;;5088230;28;20859;-82
2021/11/12 23:15:44;;;;;;;0.10;0.10;;;7.70;99.90;;;;;;5055568;28;20124;-87